createdAt,value
2023-05-24T00:01:25.864Z,64.09
2023-05-24T00:04:15.159Z,63.59
2023-05-24T00:07:05.397Z,63.48
2023-05-24T00:09:54.196Z,64.00
2023-05-24T00:12:42.805Z,63.99
2023-05-24T00:15:31.311Z,64.22
2023-05-24T00:18:19.894Z,63.65
2023-05-24T00:21:08.635Z,64.33
2023-05-24T00:23:58.499Z,64.62
2023-05-24T00:26:47.078Z,64.49
2023-05-24T00:29:35.702Z,65.90
2023-05-24T00:32:24.373Z,65.76
2023-05-24T00:35:12.876Z,66.45
2023-05-24T00:38:01.680Z,66.66
2023-05-24T00:40:51.571Z,66.97
2023-05-24T00:43:40.122Z,67.96
2023-05-24T00:46:30.580Z,68.97
2023-05-24T00:49:20.038Z,69.80
2023-05-24T00:52:09.815Z,69.95
2023-05-24T00:54:58.347Z,70.36
2023-05-24T00:57:48.174Z,70.65
2023-05-24T01:00:37.262Z,71.39
2023-05-24T01:03:25.871Z,71.72
2023-05-24T01:06:15.959Z,72.09
2023-05-24T01:09:13.120Z,71.91
2023-05-24T01:12:11.441Z,69.87
2023-05-24T01:15:10.268Z,68.27
2023-05-24T01:18:05.975Z,69.85
2023-05-24T01:21:02.753Z,70.48
2023-05-24T01:23:59.301Z,70.01
2023-05-24T01:27:02.880Z,70.22
2023-05-24T01:29:53.538Z,71.03
2023-05-24T01:32:42.089Z,70.26
2023-05-24T01:35:30.604Z,71.47
2023-05-24T01:38:19.133Z,72.56
2023-05-24T01:41:17.636Z,72.11
2023-05-24T01:44:14.292Z,71.33
2023-05-24T01:47:06.042Z,72.33
2023-05-24T01:49:56.198Z,72.20
2023-05-24T01:52:46.165Z,71.52
2023-05-24T01:55:35.915Z,70.50
2023-05-24T01:58:25.148Z,70.09
2023-05-24T02:01:15.442Z,69.81
2023-05-24T02:04:04.248Z,70.52
2023-05-24T02:06:52.698Z,71.55
2023-05-24T02:09:41.178Z,71.82
2023-05-24T02:12:29.646Z,71.92
2023-05-24T02:15:18.188Z,73.11
2023-05-24T02:18:08.776Z,72.70
2023-05-24T02:20:57.281Z,72.81
2023-05-24T02:23:45.974Z,73.08
2023-05-24T02:26:34.505Z,73.02
2023-05-24T02:29:23.466Z,72.71
2023-05-24T02:32:11.989Z,73.06
2023-05-24T02:35:02.993Z,73.57
2023-05-24T02:37:51.481Z,73.08
2023-05-24T02:40:40.003Z,73.03
2023-05-24T02:43:28.554Z,72.67
2023-05-24T02:46:17.099Z,72.68
2023-05-24T02:49:14.648Z,72.68
2023-05-24T02:52:04.743Z,72.98
2023-05-24T02:54:54.288Z,72.84
2023-05-24T02:57:43.038Z,72.70
2023-05-24T03:00:32.012Z,73.59
2023-05-24T03:03:20.617Z,74.08
2023-05-24T03:06:09.174Z,74.30
2023-05-24T03:08:59.327Z,73.45
2023-05-24T03:11:47.882Z,73.85
2023-05-24T03:14:36.393Z,73.78
2023-05-24T03:17:25.148Z,74.31
2023-05-24T03:20:13.929Z,74.27
2023-05-24T03:23:02.502Z,74.65
2023-05-24T03:25:52.384Z,74.66
2023-05-24T03:28:41.912Z,75.07
2023-05-24T03:31:30.705Z,75.35
2023-05-24T03:34:19.577Z,74.41
2023-05-24T03:37:08.096Z,74.73
2023-05-24T03:39:56.579Z,74.70
2023-05-24T03:42:46.489Z,74.25
2023-05-24T03:45:39.606Z,74.24
2023-05-24T03:48:29.018Z,72.93
2023-05-24T03:51:17.532Z,73.44
2023-05-24T03:54:06.470Z,73.64
2023-05-24T03:56:55.309Z,74.07
2023-05-24T03:59:45.237Z,73.90
2023-05-24T04:02:33.819Z,73.97
2023-05-24T04:05:26.809Z,74.23
2023-05-24T04:08:15.414Z,74.47
2023-05-24T04:11:03.969Z,75.02
2023-05-24T04:13:55.302Z,74.85
2023-05-24T04:16:45.268Z,74.43
2023-05-24T04:19:33.906Z,73.83
2023-05-24T04:22:24.264Z,73.53
2023-05-24T04:25:14.104Z,73.32
2023-05-24T04:28:03.951Z,72.52
2023-05-24T04:30:53.777Z,72.27
2023-05-24T04:33:43.763Z,72.53
2023-05-24T04:36:34.018Z,72.83
2023-05-24T04:39:23.686Z,72.73
2023-05-24T04:42:12.946Z,72.46
2023-05-24T04:45:04.379Z,72.93
2023-05-24T04:47:52.999Z,73.67
2023-05-24T04:50:43.105Z,73.60
2023-05-24T04:53:32.892Z,73.87
2023-05-24T04:56:21.611Z,73.61
2023-05-24T04:59:10.237Z,73.73
2023-05-24T05:01:58.857Z,74.04
2023-05-24T05:04:47.437Z,73.70
2023-05-24T05:07:38.375Z,73.36
2023-05-24T05:10:27.156Z,73.10
2023-05-24T05:13:15.948Z,73.59
2023-05-24T05:16:05.424Z,74.01
2023-05-24T05:18:53.961Z,74.02
2023-05-24T05:21:42.466Z,74.50
2023-05-24T05:24:32.307Z,74.16
2023-05-24T05:27:21.026Z,74.06
2023-05-24T05:30:10.469Z,74.29
2023-05-24T05:32:59.373Z,73.95
2023-05-24T05:35:47.944Z,74.08
2023-05-24T05:38:36.517Z,73.67
2023-05-24T05:41:26.381Z,74.01
2023-05-24T05:44:15.014Z,74.48
2023-05-24T05:47:04.011Z,73.83
2023-05-24T05:49:52.854Z,73.40
2023-05-24T05:52:41.494Z,73.37
2023-05-24T05:55:30.259Z,73.58
2023-05-24T05:58:20.142Z,72.91
2023-05-24T06:01:08.723Z,72.83
2023-05-24T06:03:57.263Z,73.00
2023-05-24T06:06:49.611Z,72.66
2023-05-24T06:09:38.425Z,72.63
2023-05-24T06:12:27.013Z,72.16
2023-05-24T06:15:17.261Z,73.24
2023-05-24T06:18:06.143Z,72.06
2023-05-24T06:20:54.802Z,71.63
2023-05-24T06:23:44.395Z,69.76
2023-05-24T06:26:33.325Z,70.52
2023-05-24T06:29:22.967Z,69.23
2023-05-24T06:32:12.933Z,70.17
2023-05-24T06:35:01.453Z,68.97
2023-05-24T06:37:49.964Z,69.42
2023-05-24T06:40:38.519Z,68.95
2023-05-24T06:43:27.116Z,70.85
2023-05-24T06:46:15.770Z,68.93
2023-05-24T06:49:05.770Z,70.55
2023-05-24T06:51:54.437Z,70.47
2023-05-24T06:54:43.250Z,70.06
2023-05-24T06:57:31.920Z,69.42
2023-05-24T07:00:21.581Z,69.05
2023-05-24T07:03:10.543Z,69.22
2023-05-24T07:06:00.534Z,69.37
2023-05-24T07:08:49.102Z,68.95
2023-05-24T07:11:37.816Z,69.31
2023-05-24T07:14:27.421Z,69.77
2023-05-24T07:17:16.181Z,69.81
2023-05-24T07:20:10.177Z,69.06
2023-05-24T07:23:01.160Z,68.41
2023-05-24T07:25:49.968Z,68.42
2023-05-24T07:28:40.479Z,66.58
2023-05-24T07:31:31.329Z,67.39
2023-05-24T07:34:20.748Z,67.86
2023-05-24T07:37:09.532Z,67.93
2023-05-24T07:39:59.830Z,67.67
2023-05-24T07:42:48.666Z,67.18
2023-05-24T07:45:37.390Z,67.35
2023-05-24T07:48:26.221Z,67.76
2023-05-24T07:51:14.854Z,68.06
2023-05-24T07:54:03.710Z,67.43
2023-05-24T07:56:53.958Z,67.31
2023-05-24T07:59:42.934Z,66.01
2023-05-24T08:02:32.070Z,65.00
2023-05-24T08:05:20.929Z,62.61
2023-05-24T08:08:09.622Z,63.38
2023-05-24T08:10:58.237Z,63.28
2023-05-24T08:13:48.175Z,60.81
2023-05-24T08:16:36.789Z,60.56
2023-05-24T08:19:25.384Z,60.10
2023-05-24T08:22:13.999Z,59.40
2023-05-24T08:25:02.545Z,59.41
2023-05-24T08:27:52.112Z,60.24
2023-05-24T08:30:42.215Z,57.79
2023-05-24T08:33:30.818Z,58.57
2023-05-24T08:36:19.581Z,57.10
2023-05-24T08:39:09.320Z,56.67
2023-05-24T08:42:08.600Z,56.22
2023-05-24T08:45:05.621Z,57.27
2023-05-24T08:47:56.472Z,54.07
2023-05-24T08:50:45.652Z,54.20
2023-05-24T08:53:36.575Z,54.79
2023-05-24T08:56:26.815Z,54.35
2023-05-24T08:59:15.449Z,53.45
2023-05-24T09:02:06.162Z,54.30
2023-05-24T09:04:56.802Z,56.34
2023-05-24T09:07:46.345Z,55.95
2023-05-24T09:10:49.362Z,55.20
2023-05-24T09:13:43.063Z,54.59
2023-05-24T09:16:31.796Z,54.29
2023-05-24T09:19:21.177Z,54.38
2023-05-24T09:22:11.276Z,54.02
2023-05-24T09:25:01.784Z,53.03
2023-05-24T09:27:51.676Z,51.75
2023-05-24T09:30:40.280Z,51.87
2023-05-24T09:33:32.428Z,49.39
2023-05-24T09:36:20.982Z,48.30
2023-05-24T09:39:11.574Z,48.04
2023-05-24T09:42:00.100Z,49.79
2023-05-24T09:44:48.796Z,49.66
2023-05-24T09:47:38.550Z,48.05
2023-05-24T09:50:28.249Z,48.44
2023-05-24T09:53:18.228Z,47.38
2023-05-24T09:56:09.370Z,46.11
2023-05-24T09:58:58.087Z,45.61
2023-05-24T10:01:47.375Z,44.20
2023-05-24T10:04:36.378Z,43.73
2023-05-24T10:07:25.392Z,41.45
2023-05-24T10:10:13.914Z,42.18
2023-05-24T10:13:04.350Z,43.16
2023-05-24T10:15:52.872Z,42.32
2023-05-24T10:18:41.488Z,43.03
2023-05-24T10:21:32.897Z,43.53
2023-05-24T10:24:24.929Z,42.86
2023-05-24T10:27:15.400Z,41.56
2023-05-24T10:30:13.828Z,41.17
2023-05-24T10:33:03.166Z,40.61
2023-05-24T10:35:52.070Z,41.04
2023-05-24T10:38:41.440Z,40.99
2023-05-24T10:41:30.212Z,40.56
2023-05-24T10:44:20.387Z,40.52
2023-05-24T10:47:14.274Z,40.89
2023-05-24T10:50:17.821Z,41.10
2023-05-24T10:53:13.791Z,40.90
2023-05-24T10:56:04.130Z,39.57
2023-05-24T10:59:02.418Z,40.30
2023-05-24T11:01:56.500Z,41.20
2023-05-24T11:04:49.202Z,42.36
2023-05-24T11:07:42.773Z,42.61
2023-05-24T11:10:32.271Z,42.19
2023-05-24T11:13:21.636Z,41.22
2023-05-24T11:16:10.550Z,40.53
2023-05-24T11:18:59.448Z,40.75
2023-05-24T11:21:50.486Z,40.55
2023-05-24T11:24:42.274Z,41.36
2023-05-24T11:27:31.972Z,41.42
2023-05-24T11:30:20.643Z,38.92
2023-05-24T11:33:16.081Z,39.33
2023-05-24T11:36:05.046Z,40.73
2023-05-24T11:38:56.733Z,41.10
2023-05-24T11:41:45.554Z,40.71
2023-05-24T11:44:35.218Z,41.37
2023-05-24T11:47:24.891Z,40.57
2023-05-24T11:50:16.713Z,39.83
2023-05-24T11:53:11.615Z,40.83
2023-05-24T11:56:01.489Z,42.02
2023-05-24T11:58:50.987Z,43.24
2023-05-24T12:01:39.531Z,42.24
2023-05-24T12:04:29.030Z,42.35
2023-05-24T12:07:17.780Z,43.08
2023-05-24T12:10:08.151Z,41.59
2023-05-24T12:12:58.054Z,41.54
2023-05-24T12:15:46.639Z,41.13
2023-05-24T12:18:38.658Z,40.96
2023-05-24T12:21:33.111Z,41.63
2023-05-24T12:24:21.601Z,40.75
2023-05-24T12:27:10.408Z,41.41
2023-05-24T12:30:09.925Z,40.72
2023-05-24T12:32:59.518Z,40.23
2023-05-24T12:35:49.915Z,39.71
2023-05-24T12:38:38.569Z,40.87
2023-05-24T12:41:27.842Z,40.27
2023-05-24T12:44:16.408Z,39.68
2023-05-24T12:47:08.529Z,41.20
2023-05-24T12:49:57.402Z,39.43
2023-05-24T12:52:47.412Z,39.52
2023-05-24T12:55:36.248Z,40.15
2023-05-24T12:58:25.144Z,40.47
2023-05-24T13:01:13.787Z,39.73
2023-05-24T13:04:03.754Z,40.25
2023-05-24T13:06:52.267Z,39.43
2023-05-24T13:09:40.839Z,38.82
2023-05-24T13:12:29.440Z,40.23
2023-05-24T13:15:19.363Z,38.77
2023-05-24T13:18:08.828Z,37.21
2023-05-24T13:21:00.475Z,37.40
2023-05-24T13:23:49.400Z,37.43
2023-05-24T13:26:38.767Z,38.12
2023-05-24T13:29:39.532Z,38.56
2023-05-24T13:32:32.109Z,37.68
2023-05-24T13:35:21.461Z,37.10
2023-05-24T13:38:11.410Z,37.75
2023-05-24T13:41:00.040Z,36.68
2023-05-24T13:43:48.885Z,36.74
2023-05-24T13:46:37.649Z,37.61
2023-05-24T13:49:26.606Z,36.57
2023-05-24T13:52:15.361Z,37.23
2023-05-24T13:55:06.213Z,37.40
2023-05-24T13:57:55.425Z,37.60
2023-05-24T14:00:44.154Z,37.04
2023-05-24T14:03:33.049Z,37.26
2023-05-24T14:06:22.222Z,38.62
2023-05-24T14:09:10.911Z,37.62
2023-05-24T14:12:03.275Z,38.24
2023-05-24T14:17:43.217Z,37.25
2023-05-24T14:20:32.750Z,36.42
2023-05-24T14:23:21.444Z,36.83
2023-05-24T14:26:10.117Z,35.69
2023-05-24T14:29:00.019Z,36.52
2023-05-24T14:31:48.621Z,37.03
2023-05-24T14:34:37.395Z,35.59
2023-05-24T14:37:25.999Z,35.74
2023-05-24T14:40:17.000Z,36.31
2023-05-24T14:43:10.083Z,35.93
2023-05-24T14:46:00.317Z,36.16
2023-05-24T14:48:49.126Z,36.84
2023-05-24T14:51:38.312Z,36.80
2023-05-24T14:54:27.357Z,36.87
2023-05-24T14:57:16.097Z,35.87
2023-05-24T15:00:05.158Z,37.50
2023-05-24T15:02:55.116Z,37.65
2023-05-24T15:05:44.204Z,37.78
2023-05-24T15:08:32.749Z,36.29
2023-05-24T15:11:22.955Z,37.16
2023-05-24T15:14:11.584Z,36.56
2023-05-24T15:17:00.283Z,37.05
2023-05-24T15:19:56.628Z,37.05
2023-05-24T15:22:45.849Z,36.67
2023-05-24T15:25:34.429Z,37.59
2023-05-24T15:28:26.054Z,37.06
2023-05-24T15:31:15.153Z,36.12
2023-05-24T15:34:04.929Z,37.61
2023-05-24T15:36:54.840Z,37.43
2023-05-24T15:39:43.330Z,37.40
2023-05-24T15:42:32.221Z,37.08
2023-05-24T15:45:21.199Z,37.25
2023-05-24T15:48:10.078Z,38.54
2023-05-24T15:51:53.567Z,37.52
2023-05-24T15:54:09.873Z,38.30
2023-05-24T15:57:00.486Z,38.12
2023-05-24T15:59:49.016Z,37.92
2023-05-24T16:02:37.666Z,37.84
2023-05-24T16:05:26.914Z,38.85
2023-05-24T16:08:16.177Z,37.77
2023-05-24T16:11:08.372Z,38.60
2023-05-24T16:13:57.321Z,39.05
2023-05-24T16:16:45.963Z,39.00
2023-05-24T16:19:34.510Z,39.51
2023-05-24T16:22:23.894Z,40.34
2023-05-24T16:25:12.417Z,39.58
2023-05-24T16:28:03.604Z,38.44
2023-05-24T16:30:55.672Z,39.50
2023-05-24T16:33:45.142Z,39.19
2023-05-24T16:36:34.003Z,39.84
2023-05-24T16:39:22.476Z,39.37
2023-05-24T16:42:11.089Z,39.46
2023-05-24T16:45:00.990Z,39.89
2023-05-24T16:47:49.648Z,39.63
2023-05-24T16:50:38.232Z,38.94
2023-05-24T16:53:27.823Z,39.39
2023-05-24T16:56:16.689Z,39.05
2023-05-24T16:59:05.304Z,38.58
2023-05-24T17:01:55.530Z,38.98
2023-05-24T17:04:44.136Z,39.54
2023-05-24T17:07:32.877Z,39.29
2023-05-24T17:10:21.607Z,38.30
2023-05-24T17:13:10.192Z,39.37
2023-05-24T17:15:59.948Z,39.34
2023-05-24T17:18:50.143Z,39.80
2023-05-24T17:21:38.686Z,39.95
2023-05-24T17:24:27.877Z,39.99
2023-05-24T17:27:19.889Z,40.04
2023-05-24T17:30:10.938Z,40.69
2023-05-24T17:32:59.522Z,41.44
2023-05-24T17:35:49.460Z,40.28
2023-05-24T17:38:39.007Z,41.06
2023-05-24T17:41:27.845Z,40.69
2023-05-24T17:44:16.408Z,41.25
2023-05-24T17:47:05.659Z,40.78
2023-05-24T17:49:54.573Z,41.77
2023-05-24T17:52:44.424Z,41.89
2023-05-24T17:55:33.046Z,42.65
2023-05-24T17:58:21.559Z,42.78
2023-05-24T18:01:11.730Z,43.70
2023-05-24T18:04:00.411Z,42.94
2023-05-24T18:06:49.037Z,43.61
2023-05-24T18:09:38.938Z,44.22
2023-05-24T18:12:27.414Z,44.41
2023-05-24T18:15:16.253Z,44.21
2023-05-24T18:18:05.123Z,44.02
2023-05-24T18:20:56.634Z,43.96
2023-05-24T18:23:45.166Z,44.15
2023-05-24T18:26:35.054Z,44.19
2023-05-24T18:29:23.789Z,43.28
2023-05-24T18:32:12.392Z,44.49
2023-05-24T18:35:01.041Z,43.57
2023-05-24T18:37:49.586Z,42.75
2023-05-24T18:40:38.063Z,43.58
2023-05-24T18:43:28.092Z,43.47
2023-05-24T18:46:16.838Z,43.55
2023-05-24T18:49:08.281Z,42.70
2023-05-24T18:51:56.998Z,44.23
2023-05-24T18:54:45.555Z,43.53
2023-05-24T18:57:34.082Z,42.89
2023-05-24T19:00:24.525Z,43.33
2023-05-24T19:03:13.305Z,43.21
2023-05-24T19:06:01.979Z,43.80
2023-05-24T19:08:50.519Z,43.50
2023-05-24T19:11:39.057Z,43.15
2023-05-24T19:14:27.609Z,43.89
2023-05-24T19:17:17.471Z,44.78
2023-05-24T19:20:07.327Z,44.75
2023-05-24T19:22:56.397Z,44.85
2023-05-24T19:25:47.834Z,44.88
2023-05-24T19:28:40.137Z,44.95
2023-05-24T19:31:29.551Z,44.79
2023-05-24T19:34:19.440Z,45.50
2023-05-24T19:37:08.001Z,45.35
2023-05-24T19:39:56.585Z,45.57
2023-05-24T19:42:45.141Z,45.76
2023-05-24T19:45:33.933Z,46.61
2023-05-24T19:48:22.577Z,46.73
2023-05-24T19:51:13.282Z,46.68
2023-05-24T19:54:01.954Z,47.05
2023-05-24T19:56:51.976Z,47.24
2023-05-24T19:59:40.630Z,48.24
2023-05-24T20:02:29.371Z,49.71
2023-05-24T20:05:18.459Z,50.85
2023-05-24T20:08:08.633Z,52.36
2023-05-24T20:10:57.888Z,52.78
2023-05-24T20:13:46.435Z,52.21
2023-05-24T20:16:35.020Z,52.86
2023-05-24T20:19:23.528Z,53.77
2023-05-24T20:22:12.488Z,53.73
2023-05-24T20:25:02.447Z,53.50
2023-05-24T20:27:51.277Z,54.09
2023-05-24T20:30:40.080Z,54.24
2023-05-24T20:33:28.600Z,54.72
2023-05-24T20:36:17.148Z,55.92
2023-05-24T20:39:06.608Z,57.17
2023-05-24T20:41:58.321Z,58.21
2023-05-24T20:44:47.077Z,58.52
2023-05-24T20:47:35.569Z,59.03
2023-05-24T20:50:24.177Z,58.99
2023-05-24T20:53:12.678Z,59.19
2023-05-24T20:56:01.905Z,59.68
2023-05-24T20:58:53.383Z,60.18
2023-05-24T21:01:42.310Z,60.13
2023-05-24T21:04:31.226Z,60.23
2023-05-24T21:07:19.771Z,62.54
2023-05-24T21:10:09.339Z,62.80
2023-05-24T21:12:57.854Z,62.86
2023-05-24T21:15:47.861Z,63.04
2023-05-24T21:18:36.617Z,63.17
2023-05-24T21:21:25.175Z,63.46
2023-05-24T21:24:15.789Z,64.62
2023-05-24T21:27:04.511Z,65.81
2023-05-24T21:29:53.003Z,66.70
2023-05-24T21:32:42.983Z,67.18
2023-05-24T21:35:32.577Z,67.94
2023-05-24T21:38:21.409Z,68.07
2023-05-24T21:41:09.980Z,68.70
2023-05-24T21:43:58.532Z,69.12
2023-05-24T21:46:47.133Z,69.43
2023-05-24T21:49:37.024Z,69.75
2023-05-24T21:52:25.577Z,69.82
2023-05-24T21:55:14.171Z,70.25
2023-05-24T21:58:02.721Z,71.01
2023-05-24T22:00:51.442Z,72.01
2023-05-24T22:03:40.349Z,72.01
2023-05-24T22:06:30.358Z,71.83
2023-05-24T22:09:19.122Z,72.34
2023-05-24T22:12:07.798Z,72.74
2023-05-24T22:14:56.346Z,72.88
2023-05-24T22:17:44.999Z,73.23
2023-05-24T22:20:36.481Z,73.23
2023-05-24T22:23:26.689Z,73.29
2023-05-24T22:26:17.146Z,72.66
2023-05-24T22:29:05.672Z,72.47
2023-05-24T22:31:54.190Z,73.15
2023-05-24T22:34:42.770Z,72.79
2023-05-24T22:37:31.323Z,73.51
2023-05-24T22:40:21.276Z,73.81
2023-05-24T22:43:09.774Z,74.67
2023-05-24T22:45:58.360Z,75.43
2023-05-24T22:48:49.866Z,76.36
2023-05-24T22:51:38.774Z,76.44
2023-05-24T22:54:27.223Z,77.06
2023-05-24T22:57:21.586Z,76.71
2023-05-24T23:00:11.753Z,76.92
2023-05-24T23:03:00.360Z,77.25
2023-05-24T23:05:48.864Z,77.31
2023-05-24T23:08:37.459Z,77.48
2023-05-24T23:11:26.377Z,77.60
2023-05-24T23:14:16.941Z,78.63
2023-05-24T23:17:06.068Z,79.29
2023-05-24T23:19:54.709Z,79.11
2023-05-24T23:22:43.579Z,78.94
2023-05-24T23:25:32.269Z,79.09
2023-05-24T23:28:21.232Z,79.55
2023-05-24T23:31:11.290Z,80.07
2023-05-24T23:33:59.893Z,80.33
2023-05-24T23:36:48.392Z,81.28
2023-05-24T23:39:37.106Z,81.92
2023-05-24T23:42:26.312Z,82.68
2023-05-24T23:45:16.169Z,81.92
2023-05-24T23:48:06.552Z,81.97
2023-05-24T23:50:55.175Z,81.77
2023-05-24T23:53:43.647Z,81.91
2023-05-24T23:56:32.181Z,82.21
2023-05-24T23:59:20.796Z,82.56
